Time;durP1;ratioP1;P1;durP2;ratioP2;P2;SDS_P1;SDS_P2;PMS_P1;PMS_P2;Temp;Humidity;BMP_temperature;BMP_pressure;BME280_temperature;BME280_humidity;BME280_pressure;Samples;Min_cycle;Max_cycle;Signal;HPM_P1;HPM_P2
2021/12/06 00:01:23;;;;;;;81.02;32.33;;;;;;;-0.59;84.69;100167.31;1630135;87;25914;-69
2021/12/06 00:03:57;;;;;;;79.65;32.25;;;;;;;-0.61;84.66;100172.58;1626037;86;99310;-66
2021/12/06 00:06:27;;;;;;;79.67;33.70;;;;;;;-0.62;84.66;100176.09;1626759;86;25906;-66
2021/12/06 00:08:53;;;;;;;85.45;32.50;;;;;;;-0.62;84.70;100178.73;1627961;86;99092;-68
2021/12/06 00:11:20;;;;;;;71.12;31.82;;;;;;;-0.59;84.75;100176.08;1626413;87;29483;-66
2021/12/06 00:13:49;;;;;;;84.65;34.50;;;;;;;-0.57;84.78;100171.69;1624697;87;25844;-66
2021/12/06 00:16:20;;;;;;;73.60;30.60;;;;;;;-0.54;84.82;100174.30;1628677;87;98982;-68
2021/12/06 00:18:48;;;;;;;76.22;32.90;;;;;;;-0.52;84.79;100169.90;1630881;87;26391;-67
2021/12/06 00:21:14;;;;;;;90.42;38.25;;;;;;;-0.51;84.75;100178.67;1633269;87;98886;-66
2021/12/06 00:23:40;;;;;;;79.70;34.65;;;;;;;-0.52;84.77;100183.06;1628554;86;28654;-68
2021/12/06 00:26:08;;;;;;;80.07;32.05;;;;;;;-0.50;84.83;100182.61;1590872;88;99427;-68
2021/12/06 00:28:36;;;;;;;78.50;34.80;;;;;;;-0.47;84.82;100180.40;1629922;87;26411;-68
2021/12/06 00:31:02;;;;;;;66.97;31.62;;;;;;;-0.51;84.74;100186.13;1628155;86;26297;-66
2021/12/06 00:33:29;;;;;;;77.17;32.85;;;;;;;-0.51;84.78;100182.62;1625817;87;99282;-66
2021/12/06 00:36:02;;;;;;;79.05;34.27;;;;;;;-0.52;84.85;100190.95;1626473;87;27472;-66
2021/12/06 00:38:24;;;;;;;71.22;31.02;;;;;;;-0.53;84.82;100186.58;1624344;86;99451;-66
2021/12/06 00:40:50;;;;;;;91.30;35.58;;;;;;;-0.51;84.81;100183.94;1630425;87;25938;-67
2021/12/06 00:43:16;;;;;;;72.30;30.82;;;;;;;-0.48;84.92;100181.28;1631931;87;25813;-67
2021/12/06 00:45:43;;;;;;;77.47;33.95;;;;;;;-0.45;84.91;100186.53;1629787;87;98987;-66
2021/12/06 00:48:09;;;;;;;77.70;32.88;;;;;;;-0.43;84.92;100185.64;1625902;87;27399;-67
2021/12/06 00:50:38;;;;;;;79.82;34.53;;;;;;;-0.44;84.89;100189.16;1624961;87;99235;-67
2021/12/06 00:53:05;;;;;;;79.07;32.45;;;;;;;-0.43;84.90;100190.03;1624214;87;25814;-66
2021/12/06 00:55:33;;;;;;;75.65;31.40;;;;;;;-0.41;84.92;100197.03;1624795;86;26563;-66
2021/12/06 00:57:59;;;;;;;82.50;33.92;;;;;;;-0.41;84.91;100203.61;1626736;87;98883;-67
2021/12/06 01:00:36;;;;;;;80.80;32.80;;;;;;;-0.40;84.99;100204.05;1629613;87;27704;-68
2021/12/06 01:03:10;;;;;;;77.65;33.23;;;;;;;-0.39;84.93;100203.16;1626232;86;99061;-66
2021/12/06 01:05:38;;;;;;;80.15;32.30;;;;;;;-0.37;84.99;100205.34;1631188;87;25859;-68
2021/12/06 01:08:05;;;;;;;70.92;29.42;;;;;;;-0.35;84.97;100207.97;1628060;87;98974;-66
2021/12/06 01:10:33;;;;;;;66.70;29.32;;;;;;;-0.35;84.96;100211.48;1635304;87;26596;-66
2021/12/06 01:12:59;;;;;;;69.77;30.00;;;;;;;-0.38;84.94;100211.50;1628269;87;27402;-68
2021/12/06 01:15:27;;;;;;;76.12;30.50;;;;;;;-0.39;84.96;100208.43;1629036;87;98833;-68
2021/12/06 01:17:56;;;;;;;79.97;31.55;;;;;;;-0.34;85.05;100215.86;1631962;87;26786;-68
2021/12/06 01:20:26;;;;;;;76.17;31.27;;;;;;;-0.32;85.05;100219.80;1627881;86;99123;-66
2021/12/06 01:22:56;;;;;;;76.15;31.97;;;;;;;-0.33;85.00;100218.05;1627366;87;26463;-68
2021/12/06 01:33:41;;;;;;;;;;;;;;;-0.30;85.16;100221.11;1634203;87;99069;-69
2021/12/06 01:41:33;;;;;;;67.82;25.97;;;;;;;-0.28;85.13;100225.92;1594170;89;27224;-67
2021/12/06 01:44:30;;;;;;;72.55;29.25;;;;;;;-0.28;85.15;100229.43;1630599;87;26455;-68
2021/12/06 01:47:02;;;;;;;76.00;30.45;;;;;;;-0.28;85.16;100233.82;1630424;86;26577;-66
2021/12/06 01:49:31;;;;;;;;;;;;;;;-0.25;85.22;100235.99;1633192;87;25882;-66
2021/12/06 01:52:01;;;;;;;65.83;25.52;;;;;;;-0.23;85.15;100235.55;1632275;87;84053;-67
2021/12/06 01:54:27;;;;;;;68.50;28.52;;;;;;;-0.24;85.20;100231.61;1633060;87;26136;-67
2021/12/06 01:56:53;;;;;;;73.75;29.27;;;;;;;-0.22;85.21;100240.37;1631418;87;99131;-67
2021/12/06 01:59:22;;;;;;;67.65;27.62;;;;;;;-0.20;85.19;100226.75;1626716;87;26051;-67
2021/12/06 02:01:49;;;;;;;71.12;28.30;;;;;;;-0.19;85.20;100224.11;1627916;87;25842;-67
2021/12/06 02:04:15;;;;;;;75.05;31.07;;;;;;;-0.16;85.21;100233.75;1629261;86;98886;-67
2021/12/06 02:06:42;;;;;;;59.63;25.30;;;;;;;-0.14;85.23;100234.61;1630919;86;25868;-69
2021/12/06 02:09:12;;;;;;;71.57;28.40;;;;;;;-0.12;85.21;100236.80;1624192;86;99149;-67
2021/12/06 02:11:39;;;;;;;70.35;30.52;;;;;;;-0.11;85.23;100239.42;1633493;87;26619;-66
2021/12/06 02:14:25;;;;;;;70.17;27.73;;;;;;;-0.12;85.21;100231.08;1627209;87;25862;-67
2021/12/06 02:16:56;;;;;;;67.00;28.77;;;;;;;-0.05;85.22;100232.79;1622828;87;98958;-67
2021/12/06 02:19:10;;;;;;;65.15;26.12;;;;;;;-0.03;85.19;100238.05;1631724;87;26507;-67
2021/12/06 02:21:41;;;;;;;65.15;27.50;;;;;;;-0.03;85.17;100238.05;1633114;87;98849;-67
2021/12/06 02:24:09;;;;;;;68.37;28.07;;;;;;;-0.02;85.18;100230.58;1630892;87;25951;-67
2021/12/06 02:26:39;;;;;;;68.30;25.35;;;;;;;0.00;85.20;100233.59;1632855;87;99233;-68
2021/12/06 02:29:07;;;;;;;65.57;26.10;;;;;;;0.02;85.15;100233.59;1630467;86;28080;-66
2021/12/06 02:31:34;;;;;;;65.83;27.37;;;;;;;0.03;85.14;100233.14;1632144;87;25797;-68
2021/12/06 02:34:01;;;;;;;73.90;28.52;;;;;;;0.01;85.12;100235.79;1631862;87;98819;-66
2021/12/06 02:36:28;;;;;;;61.70;25.68;;;;;;;0.05;85.15;100245.42;1630741;87;25897;-66
2021/12/06 02:38:55;;;;;;;64.42;26.52;;;;;;;0.04;85.10;100241.48;1628190;86;98941;-66
2021/12/06 02:41:21;;;;;;;63.30;28.10;;;;;;;0.02;85.08;100252.03;1629652;86;28045;-68
2021/12/06 02:43:49;;;;;;;61.18;26.48;;;;;;;0.02;85.08;100248.08;1629567;87;34064;-68
2021/12/06 02:46:15;;;;;;;63.52;27.45;;;;;;;0.00;85.07;100245.45;1631762;87;98865;-68
2021/12/06 02:48:41;;;;;;;61.68;25.27;;;;;;;0.02;85.04;100252.03;1630514;87;25917;-68
2021/12/06 02:51:09;;;;;;;65.50;27.52;;;;;;;0.01;85.03;100258.19;1629172;87;98964;-68
2021/12/06 02:53:37;;;;;;;58.58;25.43;;;;;;;0.03;85.06;100260.81;1626923;87;28362;-68
2021/12/06 02:56:17;;;;;;;62.27;25.20;;;;;;;0.04;85.06;100263.44;1628251;86;25925;-68
2021/12/06 03:01:15;;;;;;;61.55;24.70;;;;;;;0.07;85.04;100267.36;1624433;87;25785;-67
2021/12/06 03:03:41;;;;;;;67.85;26.12;;;;;;;0.07;84.97;100276.59;1630976;87;98761;-69
2021/12/06 03:06:09;;;;;;;69.62;27.35;;;;;;;0.05;84.97;100277.04;1624985;87;27413;-66
2021/12/06 03:09:01;;;;;;;62.35;25.37;;;;;;;0.06;85.01;100285.82;1633761;87;98966;-68
2021/12/06 03:11:41;;;;;;;60.60;25.75;;;;;;;0.08;85.03;100288.00;1633228;87;25796;-68
2021/12/06 03:14:11;;;;;;;66.62;25.92;;;;;;;0.08;84.97;100295.47;1632053;87;25914;-67
2021/12/06 03:16:38;;;;;;;62.40;25.30;;;;;;;0.07;84.95;100303.38;1624233;87;98911;-67
2021/12/06 03:19:06;;;;;;;62.83;23.75;;;;;;;0.06;84.96;100301.63;1634007;87;28016;-67
2021/12/06 03:21:33;;;;;;;62.73;25.02;;;;;;;0.05;84.92;100302.52;1628386;87;98717;-69
2021/12/06 03:23:59;;;;;;;60.83;26.45;;;;;;;0.02;84.90;100298.14;1627072;87;26330;-69
2021/12/06 03:26:28;;;;;;;62.50;25.12;;;;;;;0.00;84.97;100285.45;1624860;87;26074;-68
2021/12/06 03:28:55;;;;;;;56.42;24.02;;;;;;;0.05;84.91;100295.48;1624105;86;98848;-67
2021/12/06 03:31:23;;;;;;;61.85;25.15;;;;;;;0.05;84.91;100295.92;1626238;86;27414;-66
2021/12/06 03:33:53;;;;;;;62.88;25.00;;;;;;;0.05;84.90;100299.88;1627046;87;98956;-66
2021/12/06 03:36:23;;;;;;;65.23;26.00;;;;;;;0.05;84.90;100296.80;1628771;87;25827;-67
2021/12/06 03:38:51;;;;;;;63.13;26.37;;;;;;;0.06;84.86;100302.95;1628407;87;98893;-68
2021/12/06 03:41:21;;;;;;;61.50;26.12;;;;;;;0.05;84.85;100302.07;1591553;89;25959;-66
2021/12/06 03:43:47;;;;;;;64.53;26.35;;;;;;;0.04;84.82;100303.40;1632139;87;28282;-67
2021/12/06 03:46:16;;;;;;;65.95;27.50;;;;;;;0.04;84.81;100310.86;1632298;86;98846;-67
2021/12/06 03:48:42;;;;;;;63.92;23.50;;;;;;;0.04;84.80;100316.13;1631804;87;26518;-67
2021/12/06 03:51:09;;;;;;;57.13;23.47;;;;;;;-0.01;84.72;100313.56;1632449;87;98949;-67
2021/12/06 03:53:35;;;;;;;67.70;26.73;;;;;;;-0.02;84.79;100317.08;1625771;87;25836;-67
2021/12/06 03:56:03;;;;;;;67.87;24.82;;;;;;;-0.01;84.74;100323.22;1628974;87;27645;-67
2021/12/06 03:58:29;;;;;;;63.42;24.57;;;;;;;-0.01;84.78;100316.19;1625034;87;98959;-67
2021/12/06 04:00:55;;;;;;;63.48;26.10;;;;;;;0.01;84.76;100318.78;1632110;87;25912;-67
2021/12/06 04:03:25;;;;;;;65.83;26.37;;;;;;;0.03;84.79;100325.36;1630474;86;98778;-67
2021/12/06 04:05:51;;;;;;;62.98;23.98;;;;;;;0.04;84.74;100323.16;1632186;86;26412;-67
2021/12/06 04:08:17;;;;;;;61.30;24.85;;;;;;;0.07;84.79;100332.36;1629431;87;28149;-67
2021/12/06 04:10:43;;;;;;;63.40;25.40;;;;;;;0.04;84.72;100335.89;1627231;87;99107;-67
2021/12/06 04:13:10;;;;;;;62.13;23.77;;;;;;;0.06;84.74;100339.84;1632609;87;30440;-64
2021/12/06 04:15:39;;;;;;;61.45;25.65;;;;;;;0.04;84.68;100335.89;1632701;87;98834;-67
2021/12/06 04:18:05;;;;;;;72.50;26.60;;;;;;;0.00;84.70;100342.09;1631083;87;25837;-67
2021/12/06 04:20:31;;;;;;;61.65;25.10;;;;;;;0.00;84.68;100338.98;1625557;86;28042;-66
2021/12/06 04:22:57;;;;;;;54.08;22.67;;;;;;;0.02;84.75;100339.42;1623301;87;98518;-67
2021/12/06 04:25:23;;;;;;;65.17;24.20;;;;;;;0.04;84.75;100346.43;1632903;87;25840;-66
2021/12/06 04:27:54;;;;;;;60.88;25.05;;;;;;;0.06;84.74;100353.88;1628094;87;98848;-66
2021/12/06 04:30:20;;;;;;;55.92;23.18;;;;;;;0.07;84.69;100358.72;1632094;87;26449;-67
2021/12/06 04:32:47;;;;;;;66.62;23.98;;;;;;;0.08;84.71;100355.20;1628104;87;98879;-67
2021/12/06 04:35:14;;;;;;;57.55;22.02;;;;;;;0.08;84.66;100371.00;1628045;87;26511;-66
2021/12/06 04:37:40;;;;;;;61.15;23.15;;;;;;;0.05;84.62;100364.44;1630813;86;25802;-66
2021/12/06 04:40:08;;;;;;;66.17;26.60;;;;;;;0.02;84.61;100371.91;1625975;87;98836;-66
2021/12/06 04:42:34;;;;;;;60.25;24.35;;;;;;;0.03;84.66;100376.30;1628956;87;25358;-66
2021/12/06 04:45:00;;;;;;;61.28;25.37;;;;;;;0.06;84.67;100378.05;1630572;87;98924;-68
2021/12/06 04:47:26;;;;;;;64.00;25.00;;;;;;;0.07;84.68;100381.98;1631253;87;25828;-66
2021/12/06 04:49:52;;;;;;;59.67;22.27;;;;;;;0.05;84.56;100378.48;1631061;87;25864;-66
2021/12/06 04:52:19;;;;;;;63.30;23.70;;;;;;;0.03;84.58;100378.94;1629249;87;98681;-65
2021/12/06 04:54:50;;;;;;;61.45;24.32;;;;;;;0.02;84.57;100373.67;1630403;86;26597;-66
2021/12/06 04:57:30;;;;;;;55.92;23.12;;;;;;;0.00;84.58;100380.30;1628202;87;99065;-66
2021/12/06 05:00:01;;;;;;;61.05;23.60;;;;;;;0.00;84.57;100377.66;1629231;87;26238;-66
2021/12/06 05:02:33;;;;;;;54.60;22.65;;;;;;;-0.02;84.57;100386.89;1619353;87;25560;-66
2021/12/06 05:05:07;;;;;;;57.17;22.93;;;;;;;-0.02;84.52;100387.34;1620649;86;98841;-66
2021/12/06 05:07:39;;;;;;;55.33;22.20;;;;;;;-0.05;84.51;100389.98;1612315;88;26065;-65
2021/12/06 05:10:08;;;;;;;59.38;22.05;;;;;;;-0.08;84.47;100389.55;1613920;87;101011;-65
2021/12/06 05:12:36;;;;;;;60.38;23.95;;;;;;;-0.07;84.54;100393.06;1619046;88;25855;-65
2021/12/06 05:15:05;;;;;;;62.00;23.57;;;;;;;-0.05;84.56;100389.54;1615557;88;99152;-66
2021/12/06 05:17:31;;;;;;;59.40;21.97;;;;;;;-0.04;84.50;100390.42;1622442;88;26408;-66
2021/12/06 05:19:57;;;;;;;57.80;22.05;;;;;;;-0.06;84.51;100386.47;1616718;86;26082;-66
2021/12/06 05:22:24;;;;;;;57.38;20.17;;;;;;;-0.05;84.50;100386.91;1620301;87;99054;-68
2021/12/06 05:24:52;;;;;;;68.00;25.02;;;;;;;-0.06;84.44;100388.23;1622224;87;25989;-68
2021/12/06 05:27:23;;;;;;;51.02;19.40;;;;;;;-0.09;84.45;100383.85;1618346;88;99411;-65
2021/12/06 05:29:51;;;;;;;56.55;21.95;;;;;;;-0.07;84.48;100388.67;1617480;87;25878;-68
2021/12/06 05:32:13;;;;;;;61.10;20.45;;;;;;;-0.08;84.43;100386.05;1619800;88;25865;-66
2021/12/06 05:34:41;;;;;;;46.92;19.42;;;;;;;-0.07;84.45;100392.63;1612750;86;98939;-65
2021/12/06 05:37:12;;;;;;;57.38;20.17;;;;;;;-0.06;84.44;100393.06;1615260;88;25741;-65
2021/12/06 05:39:38;;;;;;;56.95;21.77;;;;;;;-0.05;84.41;100396.56;1623253;88;99342;-65
2021/12/06 05:42:11;;;;;;;56.10;19.15;;;;;;;-0.05;84.37;100399.20;1615668;88;25826;-65
2021/12/06 05:44:38;;;;;;;48.68;18.90;;;;;;;-0.07;84.35;100400.52;1586083;90;25921;-65
2021/12/06 05:47:05;;;;;;;52.17;20.55;;;;;;;-0.07;84.33;100407.11;1618919;88;98401;-68
2021/12/06 05:49:31;;;;;;;57.50;19.90;;;;;;;-0.12;84.31;100416.80;1618746;86;25789;-66
2021/12/06 05:51:58;;;;;;;57.33;21.52;;;;;;;-0.11;84.33;100422.50;1614975;88;99054;-66
2021/12/06 05:54:25;;;;;;;52.73;20.90;;;;;;;-0.10;84.28;100416.78;1617900;88;26706;-66
2021/12/06 05:56:53;;;;;;;48.38;19.92;;;;;;;-0.09;84.32;100418.54;1579911;89;99462;-66
2021/12/06 05:59:19;;;;;;;56.65;21.07;;;;;;;-0.09;84.31;100421.17;1617938;88;27444;-68
2021/12/06 06:01:48;;;;;;;52.35;19.10;;;;;;;-0.08;84.31;100426.44;1627309;87;26701;-66
2021/12/06 06:04:13;;;;;;;58.48;22.30;;;;;;;-0.07;84.29;100433.45;1630339;86;98892;-66
2021/12/06 06:06:39;;;;;;;62.15;21.20;;;;;;;-0.08;84.23;100431.70;1633086;86;25874;-66
2021/12/06 06:09:06;;;;;;;54.50;19.15;;;;;;;-0.09;84.22;100431.71;1631811;86;99033;-66
2021/12/06 06:11:34;;;;;;;53.20;20.05;;;;;;;-0.09;84.24;100433.03;1630031;87;28019;-66
2021/12/06 06:14:04;;;;;;;58.83;21.35;;;;;;;-0.07;84.22;100428.62;1612650;87;25925;-68
2021/12/06 06:16:36;;;;;;;54.25;18.70;;;;;;;-0.06;84.25;100427.75;1633099;87;99384;-66
2021/12/06 06:19:00;;;;;;;58.63;21.12;;;;;;;-0.06;84.21;100435.20;1630768;87;25788;-67
2021/12/06 06:21:26;;;;;;;61.83;22.27;;;;;;;-0.08;84.18;100430.83;1632780;87;99535;-67
2021/12/06 06:23:52;;;;;;;61.23;21.45;;;;;;;-0.08;84.19;100430.83;1628845;87;28000;-68
2021/12/06 06:26:18;;;;;;;49.98;18.40;;;;;;;-0.06;84.21;100419.84;1628935;86;33193;-68
2021/12/06 06:28:44;;;;;;;55.78;21.17;;;;;;;-0.06;84.21;100431.26;1626740;87;99331;-67
2021/12/06 06:31:10;;;;;;;53.63;18.20;;;;;;;-0.05;84.20;100429.50;1627009;86;25886;-66
2021/12/06 06:33:36;;;;;;;64.15;22.17;;;;;;;-0.03;84.22;100427.73;1633492;87;99093;-66
2021/12/06 06:36:02;;;;;;;54.55;20.55;;;;;;;0.00;84.22;100435.62;1628394;86;28081;-69
2021/12/06 06:38:28;;;;;;;56.15;21.15;;;;;;;0.00;84.22;100428.56;1631232;87;25892;-69
2021/12/06 06:40:55;;;;;;;53.48;19.48;;;;;;;0.02;84.19;100432.95;1627856;87;98768;-69
2021/12/06 06:43:21;;;;;;;49.27;18.40;;;;;;;0.03;84.17;100430.31;1626823;86;28513;-69
2021/12/06 06:45:47;;;;;;;57.15;21.95;;;;;;;0.02;84.18;100433.83;1625919;86;98786;-67
2021/12/06 06:48:13;;;;;;;57.45;21.48;;;;;;;0.03;84.16;100438.66;1625649;86;27571;-68
2021/12/06 06:50:39;;;;;;;59.77;21.37;;;;;;;0.03;84.13;100447.44;1629759;86;33527;-69
2021/12/06 06:53:05;;;;;;;61.75;21.77;;;;;;;0.04;84.17;100453.14;1630361;86;99142;-68
2021/12/06 06:55:32;;;;;;;55.40;21.85;;;;;;;0.07;84.17;100450.94;1632432;86;26532;-69
2021/12/06 06:57:58;;;;;;;59.83;22.50;;;;;;;0.04;84.07;100450.51;1631539;86;98784;-68
2021/12/06 07:00:29;;;;;;;65.70;24.18;;;;;;;0.04;84.11;100458.41;1629773;86;27428;-66
2021/12/06 07:02:55;;;;;;;57.95;22.02;;;;;;;0.05;84.18;100460.17;1614386;86;99128;-67
2021/12/06 07:05:23;;;;;;;57.33;21.85;;;;;;;0.07;84.16;100459.72;1622495;86;25980;-67
2021/12/06 07:07:49;;;;;;;67.82;22.22;;;;;;;0.07;84.12;100465.44;1616379;86;26290;-67
2021/12/06 07:10:16;;;;;;;60.10;22.00;;;;;;;0.05;84.07;100472.02;1621980;86;98732;-67
2021/12/06 07:12:49;;;;;;;61.63;22.52;;;;;;;0.06;84.13;100476.86;1619573;86;27423;-67
2021/12/06 07:15:15;;;;;;;63.48;22.15;;;;;;;0.07;84.18;100479.48;1614378;86;99275;-69
2021/12/06 07:17:43;;;;;;;61.63;22.45;;;;;;;0.10;84.18;100477.28;1577993;88;25860;-66
2021/12/06 07:20:11;;;;;;;62.13;22.58;;;;;;;0.11;84.14;100475.08;1621548;86;25822;-66
2021/12/06 07:22:37;;;;;;;63.87;23.05;;;;;;;0.10;84.11;100479.91;1619620;86;98789;-67
2021/12/06 07:25:06;;;;;;;65.25;24.95;;;;;;;0.13;84.18;100476.83;1618817;88;28175;-66
2021/12/06 07:27:33;;;;;;;54.77;20.72;;;;;;;0.12;84.11;100479.03;1615434;86;99313;-65
2021/12/06 07:29:59;;;;;;;62.88;24.10;;;;;;;0.13;84.18;100479.91;1616836;86;25780;-69
2021/12/06 07:32:25;;;;;;;66.87;24.32;;;;;;;0.12;84.13;100480.34;1615933;87;25787;-68
2021/12/06 07:34:51;;;;;;;66.57;23.35;;;;;;;0.12;84.08;100484.30;1618015;86;98854;-67
2021/12/06 07:37:18;;;;;;;57.55;21.42;;;;;;;0.11;84.17;100492.20;1621517;88;27537;-65
2021/12/06 07:39:45;;;;;;;67.42;26.02;;;;;;;0.15;84.23;100491.31;1578835;89;98710;-70
2021/12/06 07:42:12;;;;;;;58.85;21.65;;;;;;;0.12;84.15;100488.25;1618421;86;26500;-68
2021/12/06 07:44:40;;;;;;;63.60;23.52;;;;;;;0.11;84.12;100485.62;1562770;90;25870;-70
2021/12/06 07:47:09;;;;;;;69.55;22.90;;;;;;;0.10;84.15;100490.45;1616217;88;97888;-68
2021/12/06 07:49:37;;;;;;;53.00;19.67;;;;;;;0.10;84.18;100489.14;1615195;87;27417;-70
2021/12/06 07:52:06;;;;;;;56.48;20.68;;;;;;;0.11;84.20;100493.52;1614882;86;98892;-69
2021/12/06 07:54:33;;;;;;;56.02;20.52;;;;;;;0.11;84.22;100504.94;1618465;88;25853;-68
2021/12/06 07:57:00;;;;;;;64.45;20.88;;;;;;;0.15;84.28;100507.13;1613301;87;99378;-68
2021/12/06 07:59:27;;;;;;;69.05;22.32;;;;;;;0.17;84.25;100511.52;1621756;87;25761;-70
2021/12/06 08:01:54;;;;;;;53.08;20.35;;;;;;;0.18;84.22;100511.07;1620545;88;27406;-69
2021/12/06 08:04:20;;;;;;;56.73;19.67;;;;;;;0.20;84.27;100503.59;1618479;86;98808;-68
2021/12/06 08:06:47;;;;;;;54.00;20.27;;;;;;;0.22;84.22;100506.22;1621485;87;25825;-70
2021/12/06 08:09:14;;;;;;;56.95;21.27;;;;;;;0.22;84.21;100515.01;1621610;87;98886;-68
2021/12/06 08:11:42;;;;;;;58.17;21.15;;;;;;;0.23;84.17;100514.13;1623216;86;25853;-68
2021/12/06 08:14:08;;;;;;;56.98;20.00;;;;;;;0.24;84.16;100521.16;1617449;88;27328;-69
2021/12/06 08:16:42;;;;;;;44.38;16.45;;;;;;;0.23;84.09;100518.08;1614291;87;99030;-69
2021/12/06 08:19:08;;;;;;;46.33;17.67;;;;;;;0.24;84.09;100518.95;1613935;88;25843;-69
2021/12/06 08:21:34;;;;;;;50.78;17.40;;;;;;;0.27;84.18;100524.22;1617086;87;98648;-68
2021/12/06 08:24:02;;;;;;;47.55;17.95;;;;;;;0.28;84.14;100524.21;1621670;86;26042;-69
2021/12/06 08:26:34;;;;;;;44.85;16.17;;;;;;;0.26;84.00;100531.25;1620535;87;28113;-72
2021/12/06 08:29:06;;;;;;;46.83;16.02;;;;;;;0.28;84.01;100536.08;1582923;88;98723;-66
2021/12/06 08:31:34;;;;;;;40.30;15.72;;;;;;;0.28;83.91;100532.56;1620324;86;25899;-66
2021/12/06 08:34:00;;;;;;;50.10;16.50;;;;;;;0.28;83.88;100533.88;1618265;87;98802;-70
2021/12/06 08:36:27;;;;;;;38.58;14.63;;;;;;;0.32;83.89;100538.26;1620882;87;26421;-67
2021/12/06 08:38:54;;;;;;;46.08;16.85;;;;;;;0.36;83.88;100540.45;1614950;88;98840;-68
2021/12/06 08:41:25;;;;;;;38.88;15.43;;;;;;;0.41;83.85;100547.45;1621555;88;25932;-67
2021/12/06 08:43:55;;;;;;;37.17;14.90;;;;;;;0.42;83.68;100551.84;1618039;88;26457;-69
2021/12/06 08:46:29;;;;;;;38.00;16.07;;;;;;;0.38;83.52;100546.59;1620788;88;98752;-68
2021/12/06 08:48:57;;;;;;;33.70;14.13;;;;;;;0.38;83.53;100543.95;1621788;86;25780;-68
2021/12/06 08:51:32;;;;;;;31.20;13.08;;;;;;;0.37;83.39;100544.84;1622876;87;98867;-67
2021/12/06 08:54:00;;;;;;;36.68;13.98;;;;;;;0.42;83.36;100550.97;1610782;88;26634;-70
2021/12/06 08:56:27;;;;;;;37.55;13.68;;;;;;;0.45;83.31;100549.20;1581733;88;26108;-71
2021/12/06 08:58:54;;;;;;;36.58;13.88;;;;;;;0.45;83.11;100556.23;1613421;88;98919;-70
2021/12/06 09:01:21;;;;;;;35.90;13.43;;;;;;;0.45;83.13;100555.79;1621861;86;25907;-68
2021/12/06 09:03:47;;;;;;;43.08;15.75;;;;;;;0.45;82.99;100565.02;1616383;88;98625;-70
2021/12/06 09:06:13;;;;;;;38.55;14.47;;;;;;;0.48;83.01;100566.77;1620760;88;25859;-70
2021/12/06 09:08:41;;;;;;;30.90;13.35;;;;;;;0.54;83.06;100565.42;1620006;87;26667;-70
2021/12/06 09:11:09;;;;;;;27.58;11.20;;;;;;;0.55;82.76;100561.91;1601918;88;98593;-69
2021/12/06 09:13:36;;;;;;;36.13;14.58;;;;;;;0.54;82.73;100561.47;1601533;89;25967;-68
2021/12/06 09:16:05;;;;;;;32.08;13.55;;;;;;;0.51;82.64;100561.04;1601864;89;98206;-71
2021/12/06 09:18:35;;;;;;;36.77;14.38;;;;;;;0.56;82.70;100563.66;1601776;89;25876;-70
2021/12/06 09:21:10;;;;;;;36.90;14.43;;;;;;;0.57;82.56;100562.33;1600699;89;98952;-70
2021/12/06 09:23:36;;;;;;;37.00;13.40;;;;;;;0.56;82.50;100566.30;1602061;89;26329;-69
2021/12/06 09:26:04;;;;;;;32.78;13.53;;;;;;;0.52;82.50;100560.16;1614983;88;26444;-69
2021/12/06 09:28:31;;;;;;;31.70;12.60;;;;;;;0.55;82.38;100570.69;1620742;86;99149;-70
2021/12/06 09:30:59;;;;;;;36.58;13.10;;;;;;;0.54;82.30;100565.42;1619716;86;25829;-69
2021/12/06 09:33:24;;;;;;;36.53;14.10;;;;;;;0.51;82.12;100578.63;1618241;87;98934;-67
2021/12/06 09:35:54;;;;;;;32.33;14.05;;;;;;;0.50;82.17;100570.27;1620151;87;26608;-67
2021/12/06 09:38:28;;;;;;;34.55;14.00;;;;;;;0.48;82.12;100573.36;1614784;88;25856;-67
2021/12/06 09:40:55;;;;;;;30.92;12.93;;;;;;;0.50;82.12;100579.50;1616375;87;98700;-68
2021/12/06 09:43:22;;;;;;;31.60;13.10;;;;;;;0.50;82.07;100574.23;1617983;86;25998;-69
2021/12/06 09:45:49;;;;;;;32.25;13.45;;;;;;;0.52;82.05;100569.83;1616398;88;98972;-69
2021/12/06 09:48:17;;;;;;;30.48;13.32;;;;;;;0.51;81.84;100577.30;1615712;88;25793;-70
2021/12/06 09:50:51;;;;;;;33.40;13.25;;;;;;;0.46;81.75;100576.00;1619361;86;26041;-68
2021/12/06 09:53:21;;;;;;;27.70;11.68;;;;;;;0.45;81.76;100576.01;1612861;87;99164;-68
2021/12/06 09:58:38;;;;;;;30.00;12.98;;;;;;;0.42;81.57;100568.98;1607111;88;98714;-68
2021/12/06 10:01:10;;;;;;;30.97;12.70;;;;;;;0.46;81.59;100575.13;1613829;87;26302;-72
2021/12/06 10:03:36;;;;;;;35.48;14.20;;;;;;;0.45;81.51;100574.69;1613535;88;99015;-67
2021/12/06 10:06:05;;;;;;;31.50;13.93;;;;;;;0.45;81.32;100571.61;1609907;88;28026;-68
2021/12/06 10:08:36;;;;;;;29.90;13.60;;;;;;;0.49;81.39;100565.44;1615211;88;25865;-68
2021/12/06 10:11:04;;;;;;;;;;;;;;;0.54;81.27;100566.30;1616840;87;98886;-69
2021/12/06 10:13:30;;;;;;;29.30;13.78;;;;;;;0.50;81.07;100564.56;1615242;88;26803;-68
2021/12/06 10:15:56;;;;;;;38.15;14.68;;;;;;;0.50;81.12;100561.05;1603666;87;98879;-69
2021/12/06 10:18:22;;;;;;;29.12;14.25;;;;;;;0.55;81.28;100564.54;1611047;88;27555;-68
2021/12/06 10:20:49;;;;;;;32.42;13.60;;;;;;;0.66;81.39;100565.38;1612002;88;25786;-67
2021/12/06 10:23:19;;;;;;;34.78;14.07;;;;;;;0.76;81.39;100563.13;1600598;88;98690;-68
2021/12/06 10:25:49;;;;;;;31.42;12.75;;;;;;;0.74;81.07;100560.94;1608890;88;26501;-68
2021/12/06 10:28:17;;;;;;;30.33;13.07;;;;;;;0.72;81.06;100564.47;1612159;88;98863;-68
2021/12/06 10:30:49;;;;;;;31.02;13.68;;;;;;;0.69;80.99;100557.89;1616016;88;27535;-70
2021/12/06 10:33:26;;;;;;;28.90;13.32;;;;;;;0.69;80.91;100565.80;1613725;88;99254;-68
2021/12/06 10:35:57;;;;;;;29.27;13.65;;;;;;;0.63;80.82;100566.70;1615968;88;25820;-66
2021/12/06 10:38:32;;;;;;;30.75;12.28;;;;;;;0.57;80.77;100557.06;1619556;88;26901;-69
2021/12/06 10:41:13;;;;;;;29.48;13.98;;;;;;;0.51;80.48;100562.36;1614279;87;98702;-67
2021/12/06 10:43:40;;;;;;;33.98;14.47;;;;;;;0.47;80.57;100566.33;1612426;88;27484;-67
2021/12/06 10:46:09;;;;;;;33.02;14.65;;;;;;;0.50;80.70;100573.79;1612880;88;98704;-67
2021/12/06 10:48:37;;;;;;;33.63;14.38;;;;;;;0.51;80.69;100573.34;1610490;88;25858;-67
2021/12/06 10:51:10;;;;;;;29.40;13.00;;;;;;;0.51;80.55;100573.34;1614215;88;99414;-68
2021/12/06 10:53:44;;;;;;;30.15;13.98;;;;;;;0.52;80.62;100577.73;1615789;88;26017;-67
2021/12/06 10:56:17;;;;;;;30.25;14.20;;;;;;;0.52;80.62;100581.25;1614559;87;28177;-68
2021/12/06 10:58:43;;;;;;;29.00;14.95;;;;;;;0.56;80.68;100576.41;1629004;87;98813;-70
2021/12/06 11:01:16;;;;;;;29.15;12.95;;;;;;;0.59;80.52;100572.87;1630454;87;25983;-69
2021/12/06 11:03:55;;;;;;;28.17;12.85;;;;;;;0.56;80.23;100572.45;1624760;87;98780;-69
2021/12/06 11:06:27;;;;;;;32.67;14.25;;;;;;;0.52;80.21;100584.33;1625295;87;25977;-69
2021/12/06 11:08:57;;;;;;;26.80;12.25;;;;;;;0.50;80.29;100586.09;1629094;87;27474;-66
2021/12/06 11:11:41;;;;;;;30.30;13.00;;;;;;;0.52;80.20;100592.24;1625149;87;98606;-68
2021/12/06 11:14:14;;;;;;;30.23;13.43;;;;;;;0.53;80.29;100588.72;1629557;87;26388;-66
2021/12/06 11:16:48;;;;;;;29.45;13.18;;;;;;;0.51;80.17;100587.41;1628323;87;99005;-67
2021/12/06 11:19:18;;;;;;;31.70;14.53;;;;;;;0.50;80.12;100596.64;1629275;87;25829;-68
2021/12/06 11:21:48;;;;;;;35.38;15.05;;;;;;;0.47;79.96;100601.48;1588408;89;99184;-69
2021/12/06 11:24:39;;;;;;;30.95;13.35;;;;;;;0.46;79.99;100595.78;1628973;87;26762;-69
2021/12/06 11:27:20;;;;;;;38.17;14.90;;;;;;;0.45;80.03;100595.34;1625816;87;99588;-69
2021/12/06 11:29:50;;;;;;;38.75;16.65;;;;;;;0.45;79.98;100602.38;1621663;87;25876;-69
2021/12/06 11:32:24;;;;;;;35.52;16.48;;;;;;;0.47;80.11;100600.17;1620045;87;25808;-66
2021/12/06 11:34:55;;;;;;;32.25;14.43;;;;;;;0.49;80.12;100589.62;1626253;87;98699;-66
2021/12/06 11:37:29;;;;;;;35.98;14.25;;;;;;;0.56;80.13;100597.94;1626664;87;25827;-68
2021/12/06 11:40:12;;;;;;;29.07;13.88;;;;;;;0.53;80.03;100592.23;1627210;87;101265;-68